createdAt,value
2023-04-04T00:00:02.084Z,7.65
2023-04-04T00:05:00.019Z,4.57
2023-04-04T00:07:29.281Z,7.18
2023-04-04T00:09:57.057Z,5.75
2023-04-04T00:12:28.371Z,3.22
2023-04-04T00:14:57.465Z,2.80
2023-04-04T00:17:25.860Z,2.80
2023-04-04T00:19:53.679Z,4.22
2023-04-04T00:22:21.543Z,4.90
2023-04-04T00:24:51.597Z,5.03
2023-04-04T00:29:47.102Z,3.72
2023-04-04T00:32:15.010Z,3.75
2023-04-04T00:34:43.023Z,3.30
2023-04-04T00:37:13.076Z,3.08
2023-04-04T00:39:41.798Z,4.13
2023-04-04T00:42:10.989Z,4.85
2023-04-04T00:44:38.878Z,6.60
2023-04-04T00:47:06.930Z,3.97
2023-04-04T00:49:34.872Z,4.95
2023-04-04T00:52:03.155Z,5.55
2023-04-04T00:54:31.534Z,4.03
2023-04-04T00:56:59.742Z,3.80
2023-04-04T00:59:30.123Z,3.08
2023-04-04T01:01:58.375Z,6.72
2023-04-04T01:04:26.365Z,4.60
2023-04-04T01:06:54.419Z,4.00
2023-04-04T01:11:51.751Z,4.10
2023-04-04T01:14:19.852Z,6.70
2023-04-04T01:16:50.539Z,2.85
2023-04-04T01:19:34.506Z,2.83
2023-04-04T01:22:07.744Z,7.10
2023-04-04T01:24:37.122Z,3.00
2023-04-04T01:27:07.780Z,2.35
2023-04-04T01:29:41.938Z,2.47
2023-04-04T01:32:16.751Z,5.05
2023-04-04T01:34:52.888Z,4.18
2023-04-04T01:37:29.461Z,7.85
2023-04-04T01:40:06.374Z,4.50
2023-04-04T01:42:37.995Z,18.08
2023-04-04T01:45:09.099Z,8.77
2023-04-04T01:47:41.657Z,7.82
2023-04-04T01:50:13.575Z,5.18
2023-04-04T01:52:41.390Z,4.97
2023-04-04T01:55:10.745Z,5.13
2023-04-04T01:57:40.451Z,6.00
2023-04-04T02:00:10.994Z,4.05
2023-04-04T02:02:44.686Z,5.93
2023-04-04T02:05:13.418Z,4.43
2023-04-04T02:07:41.825Z,5.68
2023-04-04T02:10:21.554Z,5.88
2023-04-04T02:12:53.902Z,6.32
2023-04-04T02:15:23.971Z,6.60
2023-04-04T02:17:52.439Z,6.22
2023-04-04T02:20:20.607Z,6.70
2023-04-04T02:22:53.723Z,4.10
2023-04-04T02:25:22.609Z,4.90
2023-04-04T02:27:52.279Z,7.53
2023-04-04T02:30:24.368Z,5.90
2023-04-04T02:32:53.004Z,5.65
2023-04-04T02:35:22.194Z,3.45
2023-04-04T02:37:51.300Z,4.67
2023-04-04T02:40:29.128Z,5.32
2023-04-04T02:42:58.473Z,3.75
2023-04-04T02:45:26.859Z,5.10
2023-04-04T02:48:03.900Z,4.78
2023-04-04T02:50:40.511Z,3.80
2023-04-04T02:53:10.260Z,4.20
2023-04-04T02:55:39.158Z,5.30
2023-04-04T02:58:08.428Z,5.10
2023-04-04T03:00:36.491Z,4.50
2023-04-04T03:03:05.358Z,6.18
2023-04-04T03:05:38.216Z,3.47
2023-04-04T03:08:06.362Z,5.68
2023-04-04T03:10:34.297Z,4.57
2023-04-04T03:13:02.187Z,4.90
2023-04-04T03:15:34.578Z,7.75
2023-04-04T03:18:03.310Z,3.90
2023-04-04T03:20:33.174Z,5.63
2023-04-04T03:23:01.069Z,6.45
2023-04-04T03:25:28.960Z,12.43
2023-04-04T03:27:56.792Z,6.15
2023-04-04T03:30:27.206Z,5.57
2023-04-04T03:32:57.329Z,6.65
2023-04-04T03:35:25.529Z,7.85
2023-04-04T03:37:54.737Z,5.25
2023-04-04T03:40:22.643Z,5.43
2023-04-04T03:42:51.466Z,4.53
2023-04-04T03:45:21.116Z,5.63
2023-04-04T03:47:49.161Z,6.43
2023-04-04T03:50:18.452Z,4.97
2023-04-04T03:52:52.570Z,5.97
2023-04-04T03:55:20.420Z,3.95
2023-04-04T03:57:48.289Z,5.05
2023-04-04T04:00:17.677Z,5.97
2023-04-04T04:02:46.466Z,4.05
2023-04-04T04:05:14.597Z,3.88
2023-04-04T04:07:45.952Z,5.53
2023-04-04T04:10:15.064Z,5.78
2023-04-04T04:12:42.860Z,5.20
2023-04-04T04:15:11.601Z,7.45
2023-04-04T04:17:41.981Z,4.70
2023-04-04T04:20:12.362Z,5.90
2023-04-04T04:22:49.468Z,5.93
2023-04-04T04:25:17.776Z,7.38
2023-04-04T04:27:57.435Z,4.55
2023-04-04T04:30:26.739Z,6.28
2023-04-04T04:32:54.706Z,4.93
2023-04-04T04:35:27.858Z,4.35
2023-04-04T04:37:58.194Z,4.88
2023-04-04T04:40:26.145Z,5.60
2023-04-04T04:43:05.957Z,5.20
2023-04-04T04:45:33.814Z,7.13
2023-04-04T04:48:08.269Z,5.22
2023-04-04T04:50:44.354Z,5.15
2023-04-04T04:53:15.176Z,7.20
2023-04-04T04:55:43.803Z,4.88
2023-04-04T04:58:12.202Z,5.00
2023-04-04T05:00:45.457Z,13.02
2023-04-04T05:03:13.593Z,11.25
2023-04-04T05:05:48.297Z,9.68
2023-04-04T05:08:18.857Z,7.10
2023-04-04T05:11:09.603Z,7.20
2023-04-04T05:13:38.488Z,6.35
2023-04-04T05:16:06.824Z,7.13
2023-04-04T05:21:09.562Z,7.97
2023-04-04T05:23:38.939Z,9.15
2023-04-04T05:26:08.133Z,8.20
2023-04-04T05:28:40.583Z,7.97
2023-04-04T05:31:08.511Z,6.47
2023-04-04T05:33:37.699Z,6.80
2023-04-04T05:36:13.070Z,7.93
2023-04-04T05:38:56.963Z,20.17
2023-04-04T05:41:29.750Z,13.73
2023-04-04T05:44:03.961Z,11.73
2023-04-04T05:46:31.879Z,8.27
2023-04-04T05:48:59.700Z,7.85
2023-04-04T05:51:28.215Z,12.00
2023-04-04T05:54:10.659Z,11.23
2023-04-04T05:56:39.892Z,9.73
2023-04-04T05:59:14.587Z,14.30
2023-04-04T06:01:52.805Z,15.07
2023-04-04T06:04:20.976Z,11.65
2023-04-04T06:06:49.285Z,7.07
2023-04-04T06:09:18.478Z,9.55
2023-04-04T06:11:46.349Z,7.43
2023-04-04T06:14:15.346Z,6.47
2023-04-04T06:16:44.928Z,7.90
2023-04-04T06:19:12.962Z,6.90
2023-04-04T06:21:40.832Z,10.32
2023-04-04T06:24:09.926Z,8.35
2023-04-04T06:26:39.261Z,8.35
2023-04-04T06:29:07.432Z,12.18
2023-04-04T06:31:38.188Z,6.40
2023-04-04T06:34:10.936Z,7.43
2023-04-04T06:37:10.898Z,7.00
2023-04-04T06:39:47.703Z,5.95
2023-04-04T06:42:23.955Z,7.63
2023-04-04T06:44:53.477Z,7.47
2023-04-04T06:47:22.488Z,6.47
2023-04-04T06:49:50.340Z,5.72
2023-04-04T06:52:18.690Z,5.50
2023-04-04T06:54:46.859Z,6.07
2023-04-04T06:57:15.829Z,8.40
2023-04-04T06:59:45.352Z,5.82
2023-04-04T07:02:13.377Z,7.68
2023-04-04T07:04:41.891Z,6.32
2023-04-04T07:07:09.672Z,5.70
2023-04-04T07:09:37.610Z,8.15
2023-04-04T07:12:05.936Z,5.93
2023-04-04T07:14:33.707Z,6.75
2023-04-04T07:17:10.702Z,6.45
2023-04-04T07:19:45.307Z,7.65
2023-04-04T07:22:13.319Z,8.43
2023-04-04T07:24:42.169Z,8.25
2023-04-04T07:27:10.007Z,7.05
2023-04-04T07:29:37.868Z,11.77
2023-04-04T07:32:07.373Z,5.75
2023-04-04T07:34:35.280Z,5.93
2023-04-04T07:37:03.094Z,6.85
2023-04-04T07:39:31.305Z,5.28
2023-04-04T07:41:59.041Z,8.70
2023-04-04T07:44:26.832Z,5.25
2023-04-04T07:47:06.267Z,6.68
2023-04-04T07:49:38.983Z,6.97
2023-04-04T07:52:07.197Z,4.50
2023-04-04T07:54:34.934Z,5.20
2023-04-04T07:57:05.480Z,5.95
2023-04-04T07:59:33.349Z,6.70
2023-04-04T08:02:01.245Z,4.47
2023-04-04T08:04:29.192Z,6.95
2023-04-04T08:06:58.459Z,3.95
2023-04-04T08:09:28.420Z,3.80
2023-04-04T08:11:56.292Z,4.57
2023-04-04T08:14:24.166Z,6.18
2023-04-04T08:16:52.571Z,5.82
2023-04-04T08:19:20.522Z,3.08
2023-04-04T08:21:48.244Z,3.90
2023-04-04T08:24:17.394Z,2.60
2023-04-04T08:26:49.064Z,4.05
2023-04-04T08:29:22.641Z,4.55
2023-04-04T08:31:50.436Z,4.35
2023-04-04T08:34:18.283Z,5.45
2023-04-04T08:36:46.149Z,5.22
2023-04-04T08:39:14.277Z,3.63
2023-04-04T08:41:46.408Z,3.97
2023-04-04T08:44:18.355Z,4.45
2023-04-04T08:46:46.840Z,3.20
2023-04-04T08:49:17.385Z,3.22
2023-04-04T08:51:47.746Z,3.33
2023-04-04T08:54:18.134Z,3.15
2023-04-04T08:56:47.447Z,4.78
2023-04-04T08:59:15.529Z,3.53
2023-04-04T09:01:43.524Z,2.67
2023-04-04T09:04:11.983Z,2.85
2023-04-04T09:06:41.001Z,3.38
2023-04-04T09:09:09.354Z,2.92
2023-04-04T09:11:37.866Z,3.58
2023-04-04T09:14:07.160Z,1.92
2023-04-04T09:16:34.981Z,4.05
2023-04-04T09:19:02.776Z,2.58
2023-04-04T09:21:34.785Z,5.07
2023-04-04T09:24:03.566Z,4.20
2023-04-04T09:26:47.909Z,3.08
2023-04-04T09:29:18.990Z,2.75
2023-04-04T09:31:47.112Z,2.70
2023-04-04T09:34:16.456Z,3.63
2023-04-04T09:36:45.573Z,3.20
2023-04-04T09:39:16.524Z,4.40
2023-04-04T09:41:46.474Z,2.92
2023-04-04T09:44:15.013Z,2.03
2023-04-04T09:46:44.437Z,4.70
2023-04-04T09:49:13.511Z,2.97
2023-04-04T09:51:42.612Z,2.33
2023-04-04T09:54:18.792Z,4.93
2023-04-04T09:56:54.514Z,4.57
2023-04-04T09:59:22.330Z,2.75
2023-04-04T10:01:53.531Z,4.50
2023-04-04T10:04:21.737Z,4.55
2023-04-04T10:06:49.820Z,2.47
2023-04-04T10:09:17.695Z,2.17
2023-04-04T10:11:45.527Z,4.15
2023-04-04T10:14:13.537Z,2.75
2023-04-04T10:16:46.525Z,3.42
2023-04-04T10:19:18.997Z,2.33
2023-04-04T10:21:47.828Z,2.92
2023-04-04T10:24:15.776Z,3.28
2023-04-04T10:26:43.562Z,3.90
2023-04-04T10:29:12.835Z,2.72
2023-04-04T10:31:44.731Z,3.03
2023-04-04T10:34:23.009Z,2.63
2023-04-04T10:36:52.532Z,3.17
2023-04-04T10:39:26.050Z,2.90
2023-04-04T10:41:56.568Z,3.92
2023-04-04T10:44:29.946Z,4.95
2023-04-04T10:47:00.613Z,2.47
2023-04-04T10:49:31.735Z,2.63
2023-04-04T10:51:59.799Z,5.15
2023-04-04T10:54:29.321Z,2.65
2023-04-04T10:57:01.458Z,2.30
2023-04-04T10:59:29.516Z,3.17
2023-04-04T11:01:59.091Z,2.03
2023-04-04T11:04:33.020Z,1.95
2023-04-04T11:07:17.865Z,5.85
2023-04-04T11:09:50.072Z,2.22
2023-04-04T11:12:23.377Z,4.18
2023-04-04T11:14:58.996Z,2.15
2023-04-04T11:17:56.176Z,3.58
2023-04-04T11:20:29.818Z,2.33
2023-04-04T11:23:08.801Z,1.73
2023-04-04T11:25:39.804Z,4.78
2023-04-04T11:28:09.887Z,1.98
2023-04-04T11:30:44.957Z,3.72
2023-04-04T11:33:15.295Z,4.88
2023-04-04T11:35:51.318Z,2.60
2023-04-04T11:38:21.681Z,2.78
2023-04-04T11:43:24.975Z,3.67
2023-04-04T11:45:52.883Z,2.60
2023-04-04T11:48:21.778Z,1.55
2023-04-04T11:50:51.359Z,2.20
2023-04-04T11:53:19.400Z,1.52
2023-04-04T11:55:50.391Z,2.20
2023-04-04T11:58:19.377Z,3.35
2023-04-04T12:00:47.762Z,1.77
2023-04-04T12:03:18.468Z,2.28
2023-04-04T12:05:47.670Z,3.28
2023-04-04T12:08:18.010Z,1.88
2023-04-04T12:13:14.108Z,4.65
2023-04-04T12:15:44.052Z,3.38
2023-04-04T12:18:21.650Z,3.10
2023-04-04T12:20:49.604Z,4.00
2023-04-04T12:23:19.690Z,2.97
2023-04-04T12:25:53.554Z,2.30
2023-04-04T12:28:22.245Z,3.13
2023-04-04T12:30:51.355Z,3.53
2023-04-04T12:33:19.266Z,3.78
2023-04-04T12:35:52.968Z,2.65
2023-04-04T12:38:22.214Z,2.53
2023-04-04T12:40:52.509Z,3.10
2023-04-04T12:45:51.297Z,6.25
2023-04-04T12:48:19.762Z,1.95
2023-04-04T12:50:55.747Z,3.05
2023-04-04T12:56:15.522Z,3.42
2023-04-04T12:58:47.647Z,2.30
2023-04-04T13:01:16.926Z,2.60
2023-04-04T13:03:45.231Z,3.38
2023-04-04T13:06:14.207Z,2.83
2023-04-04T13:08:52.732Z,1.70
2023-04-04T13:11:21.703Z,2.17
2023-04-04T13:13:49.868Z,4.05
2023-04-04T13:16:31.731Z,3.35
2023-04-04T13:19:00.088Z,2.08
2023-04-04T13:21:28.246Z,2.22
2023-04-04T13:23:57.886Z,2.50
2023-04-04T13:26:26.138Z,3.25
2023-04-04T13:28:54.009Z,2.72
2023-04-04T13:31:22.190Z,2.83
2023-04-04T13:33:50.104Z,2.22
2023-04-04T13:36:18.041Z,1.70
2023-04-04T13:38:45.799Z,2.13
2023-04-04T13:41:14.970Z,3.15
2023-04-04T13:43:42.810Z,2.88
2023-04-04T13:46:10.615Z,3.95
2023-04-04T13:48:38.540Z,2.17
2023-04-04T13:51:06.547Z,3.33
2023-04-04T13:53:34.465Z,2.55
2023-04-04T13:56:17.685Z,3.03
2023-04-04T13:58:48.152Z,2.75
2023-04-04T14:01:16.039Z,2.38
2023-04-04T14:03:44.098Z,2.85
2023-04-04T14:06:12.363Z,2.35
2023-04-04T14:08:40.448Z,3.28
2023-04-04T14:11:08.271Z,3.67
2023-04-04T14:13:36.334Z,2.08
2023-04-04T14:16:06.197Z,2.85
2023-04-04T14:18:34.523Z,2.50
2023-04-04T14:21:03.023Z,2.42
2023-04-04T14:23:31.515Z,4.45
2023-04-04T14:25:59.475Z,2.50
2023-04-04T14:28:28.118Z,4.63
2023-04-04T14:30:56.203Z,1.95
2023-04-04T14:33:25.460Z,2.33
2023-04-04T14:35:53.221Z,1.90
2023-04-04T14:38:20.993Z,2.53
2023-04-04T14:40:49.308Z,3.22
2023-04-04T14:43:17.074Z,2.28
2023-04-04T14:45:44.967Z,3.28
2023-04-04T14:48:12.921Z,6.78
2023-04-04T14:50:42.823Z,2.25
2023-04-04T14:53:11.803Z,2.85
2023-04-04T14:55:39.748Z,5.55
2023-04-04T14:58:08.234Z,5.78
2023-04-04T15:00:36.289Z,3.10
2023-04-04T15:03:07.164Z,5.22
2023-04-04T15:05:35.233Z,5.28
2023-04-04T15:08:04.752Z,2.92
2023-04-04T15:10:32.549Z,5.28
2023-04-04T15:13:00.596Z,14.18
2023-04-04T15:15:29.296Z,5.32
2023-04-04T15:17:57.250Z,2.83
2023-04-04T15:20:25.143Z,2.90
2023-04-04T15:22:54.475Z,3.22
2023-04-04T15:25:23.951Z,3.33
2023-04-04T15:27:51.898Z,6.55
2023-04-04T15:30:19.775Z,2.00
2023-04-04T15:32:47.744Z,2.20
2023-04-04T15:35:19.799Z,4.57
2023-04-04T15:37:49.099Z,3.22
2023-04-04T15:40:17.670Z,3.20
2023-04-04T15:42:47.195Z,3.88
2023-04-04T15:45:16.572Z,4.68
2023-04-04T15:47:45.063Z,2.57
2023-04-04T15:50:13.269Z,3.42
2023-04-04T15:52:41.643Z,3.95
2023-04-04T15:55:13.174Z,5.43
2023-04-04T15:57:42.727Z,3.50
2023-04-04T16:00:15.075Z,3.57
2023-04-04T16:02:43.098Z,4.85
2023-04-04T16:05:11.347Z,2.63
2023-04-04T16:07:39.214Z,4.20
2023-04-04T16:10:08.097Z,3.75
2023-04-04T16:12:36.039Z,3.15
2023-04-04T16:15:05.350Z,3.85
2023-04-04T16:17:34.671Z,8.30
2023-04-04T16:20:02.572Z,2.50
2023-04-04T16:22:30.349Z,4.18
2023-04-04T16:24:58.125Z,3.38
2023-04-04T16:27:26.029Z,4.93
2023-04-04T16:29:54.053Z,6.82
2023-04-04T16:32:21.824Z,4.95
2023-04-04T16:34:51.178Z,2.67
2023-04-04T16:37:19.037Z,4.17
2023-04-04T16:39:48.134Z,3.00
2023-04-04T16:42:19.496Z,3.53
2023-04-04T16:44:47.855Z,3.28
2023-04-04T16:47:15.654Z,3.35
2023-04-04T16:49:43.545Z,2.90
2023-04-04T16:52:14.599Z,4.40
2023-04-04T16:54:43.259Z,5.45
2023-04-04T16:57:11.251Z,4.70
2023-04-04T16:59:39.116Z,4.43
2023-04-04T17:02:08.902Z,3.83
2023-04-04T17:04:39.459Z,4.43
2023-04-04T17:07:09.118Z,4.32
2023-04-04T17:09:38.313Z,6.43
2023-04-04T17:12:06.808Z,4.93
2023-04-04T17:14:35.560Z,4.68
2023-04-04T17:17:05.164Z,4.68
2023-04-04T17:19:34.991Z,4.60
2023-04-04T17:22:03.390Z,4.68
2023-04-04T17:24:31.250Z,5.07
2023-04-04T17:27:02.387Z,4.72
2023-04-04T17:29:30.674Z,3.92
2023-04-04T17:31:59.692Z,4.85
2023-04-04T17:34:27.858Z,5.90
2023-04-04T17:36:56.600Z,4.05
2023-04-04T17:39:24.567Z,5.60
2023-04-04T17:41:52.828Z,4.18
2023-04-04T17:44:22.860Z,3.70
2023-04-04T17:46:50.734Z,5.13
2023-04-04T17:49:20.566Z,4.65
2023-04-04T17:51:49.257Z,3.90
2023-04-04T17:54:17.412Z,5.38
2023-04-04T17:56:45.524Z,4.18
2023-04-04T17:59:13.897Z,4.13
2023-04-04T18:01:43.227Z,6.45
2023-04-04T18:04:11.491Z,4.13
2023-04-04T18:06:41.163Z,3.78
2023-04-04T18:09:10.162Z,6.03
2023-04-04T18:11:38.407Z,3.85
2023-04-04T18:14:06.303Z,5.15
2023-04-04T18:16:39.533Z,3.97
2023-04-04T18:19:10.920Z,3.40
2023-04-04T18:21:39.208Z,5.15
2023-04-04T18:24:11.102Z,6.43
2023-04-04T18:26:39.267Z,5.03
2023-04-04T18:29:07.427Z,4.95
2023-04-04T18:31:35.411Z,5.50
2023-04-04T18:34:03.263Z,4.35
2023-04-04T18:36:32.564Z,5.97
2023-04-04T18:39:01.118Z,5.90
2023-04-04T18:41:29.094Z,5.57
2023-04-04T18:43:57.031Z,6.38
2023-04-04T18:46:25.058Z,6.00
2023-04-04T18:48:52.894Z,5.70
2023-04-04T18:51:22.311Z,6.90
2023-04-04T18:53:53.004Z,5.57
2023-04-04T18:56:21.603Z,5.32
2023-04-04T18:58:49.715Z,5.75
2023-04-04T19:01:17.740Z,4.75
2023-04-04T19:03:48.110Z,5.10
2023-04-04T19:06:16.611Z,6.60
2023-04-04T19:08:45.310Z,5.90
2023-04-04T19:11:15.850Z,7.60
2023-04-04T19:13:43.690Z,5.68
2023-04-04T19:16:11.617Z,6.68
2023-04-04T19:18:39.444Z,5.78
2023-04-04T19:21:08.842Z,5.68
2023-04-04T19:23:38.053Z,7.25
2023-04-04T19:26:06.609Z,9.15
2023-04-04T19:28:36.448Z,7.60
2023-04-04T19:31:10.787Z,8.15
2023-04-04T19:33:39.128Z,5.55
2023-04-04T19:36:09.588Z,6.95
2023-04-04T19:38:38.784Z,5.97
2023-04-04T19:41:12.415Z,10.85
2023-04-04T19:43:45.038Z,13.02
2023-04-04T19:46:14.372Z,11.52
2023-04-04T19:48:48.833Z,11.77
2023-04-04T19:51:39.122Z,11.77
2023-04-04T19:54:11.870Z,10.63
2023-04-04T19:56:39.909Z,7.25
2023-04-04T19:59:10.933Z,8.27
2023-04-04T20:01:44.775Z,7.22
2023-04-04T20:04:15.544Z,5.00
2023-04-04T20:06:43.540Z,7.85
2023-04-04T20:09:26.348Z,4.70
2023-04-04T20:11:54.318Z,7.63
2023-04-04T20:14:23.730Z,5.45
2023-04-04T20:16:52.558Z,7.32
2023-04-04T20:19:21.824Z,7.60
2023-04-04T20:21:50.020Z,6.50
2023-04-04T20:24:18.767Z,6.70
2023-04-04T20:26:55.521Z,4.70
2023-04-04T20:29:27.142Z,6.80
2023-04-04T20:31:57.249Z,4.80
2023-04-04T20:34:38.708Z,6.95
2023-04-04T20:37:10.145Z,4.97
2023-04-04T20:39:45.118Z,5.07
2023-04-04T20:42:20.054Z,7.15
2023-04-04T20:44:49.285Z,7.38
2023-04-04T20:47:44.945Z,8.45
2023-04-04T20:50:36.494Z,8.40
2023-04-04T20:53:05.864Z,6.25
2023-04-04T20:55:36.137Z,8.17
2023-04-04T20:58:08.692Z,7.50
2023-04-04T21:00:41.698Z,8.52
2023-04-04T21:03:11.689Z,8.38
2023-04-04T21:05:41.139Z,8.82
2023-04-04T21:08:37.055Z,5.93
2023-04-04T21:11:06.797Z,5.95
2023-04-04T21:13:37.153Z,6.70
2023-04-04T21:16:09.847Z,5.65
2023-04-04T21:18:39.141Z,8.60
2023-04-04T21:21:12.977Z,4.03
2023-04-04T21:23:46.042Z,4.65
2023-04-04T21:26:31.833Z,6.20
2023-04-04T21:29:00.948Z,5.72
2023-04-04T21:31:36.409Z,5.65
2023-04-04T21:34:12.684Z,6.68
2023-04-04T21:36:41.416Z,4.65
2023-04-04T21:39:12.947Z,5.82
2023-04-04T21:41:41.300Z,5.57
2023-04-04T21:44:10.714Z,5.38
2023-04-04T21:46:41.996Z,5.03
2023-04-04T21:49:10.552Z,4.50
2023-04-04T21:51:38.763Z,6.18
2023-04-04T21:54:06.733Z,4.80
2023-04-04T21:56:34.615Z,6.28
2023-04-04T21:59:04.004Z,4.50
2023-04-04T22:01:32.949Z,5.22
2023-04-04T22:04:02.505Z,6.53
2023-04-04T22:06:31.119Z,5.63
2023-04-04T22:09:01.681Z,5.25
2023-04-04T22:11:30.363Z,6.15
2023-04-04T22:14:04.678Z,5.20
2023-04-04T22:16:36.945Z,5.50
2023-04-04T22:19:07.348Z,5.90
2023-04-04T22:21:36.472Z,5.07
2023-04-04T22:24:06.242Z,5.57
2023-04-04T22:26:34.664Z,4.77
2023-04-04T22:29:05.163Z,4.82
2023-04-04T22:31:34.957Z,5.50
2023-04-04T22:34:03.954Z,4.05
2023-04-04T22:36:35.226Z,5.93
2023-04-04T22:39:03.052Z,5.15
2023-04-04T22:41:30.907Z,7.22
2023-04-04T22:43:59.409Z,4.15
2023-04-04T22:46:28.854Z,5.28
2023-04-04T22:49:04.845Z,5.57
2023-04-04T22:51:42.856Z,5.90
2023-04-04T22:54:11.149Z,6.93
2023-04-04T22:56:38.958Z,6.50
2023-04-04T22:59:06.796Z,8.35
2023-04-04T23:01:34.803Z,9.85
2023-04-04T23:04:02.757Z,7.75
2023-04-04T23:06:31.419Z,6.28
2023-04-04T23:09:01.941Z,7.78
2023-04-04T23:11:30.645Z,6.80
2023-04-04T23:13:58.619Z,6.22
2023-04-04T23:16:26.721Z,6.95
2023-04-04T23:18:54.606Z,5.97
2023-04-04T23:21:22.772Z,6.30
2023-04-04T23:23:50.818Z,5.85
2023-04-04T23:26:20.098Z,5.93
2023-04-04T23:28:48.085Z,6.10
2023-04-04T23:31:16.861Z,6.75
2023-04-04T23:33:44.891Z,6.05
2023-04-04T23:36:12.936Z,6.38
2023-04-04T23:38:40.785Z,6.10
2023-04-04T23:41:09.516Z,6.78
2023-04-04T23:43:39.010Z,7.25
2023-04-04T23:46:07.376Z,5.25
2023-04-04T23:48:35.462Z,5.97
2023-04-04T23:51:04.276Z,6.25
2023-04-04T23:53:32.193Z,6.95
2023-04-04T23:56:00.050Z,7.32
2023-04-04T23:58:27.920Z,6.95
